Time;durP1;ratioP1;P1;durP2;ratioP2;P2;SDS_P1;SDS_P2;PMS_P1;PMS_P2;Temp;Humidity;BMP_temperature;BMP_pressure;BME280_temperature;BME280_humidity;BME280_pressure;Samples;Min_cycle;Max_cycle;Signal;HPM_P1;HPM_P2
2021/09/12 00:01:25;;;;;;;11.80;9.27;;;;;;;;;;4992334;28;20556;-47
2021/09/12 00:03:52;;;;;;;11.68;9.18;;;;;;;;;;4991309;28;20062;-43
2021/09/12 00:06:19;;;;;;;10.63;9.20;;;;;;;;;;4991887;28;20049;-48
2021/09/12 00:08:46;;;;;;;12.75;9.05;;;;;;;;;;5001091;28;20141;-44
2021/09/12 00:11:13;;;;;;;9.90;8.25;;;;;;;;;;5011527;28;20101;-46
2021/09/12 00:13:41;;;;;;;12.25;7.75;;;;;;;;;;4997761;28;20046;-48
2021/09/12 00:16:07;;;;;;;10.93;8.63;;;;;;;;;;4991979;28;20073;-49
2021/09/12 00:18:35;;;;;;;10.50;7.88;;;;;;;;;;4992072;28;20057;-50
2021/09/12 00:21:01;;;;;;;11.55;8.02;;;;;;;;;;5002911;28;20041;-46
2021/09/12 00:23:28;;;;;;;11.38;9.20;;;;;;;;;;5016365;28;20042;-47
2021/09/12 00:25:55;;;;;;;9.13;7.43;;;;;;;;;;5035506;28;20087;-44
2021/09/12 00:28:21;;;;;;;10.13;8.13;;;;;;;;;;5033916;28;20045;-46
2021/09/12 00:30:48;;;;;;;11.20;8.63;;;;;;;;;;4998731;28;20038;-47
2021/09/12 00:33:15;;;;;;;10.32;8.65;;;;;;;;;;4994924;28;20415;-44
2021/09/12 00:35:42;;;;;;;10.98;7.97;;;;;;;;;;4995702;28;20042;-45
2021/09/12 00:38:09;;;;;;;10.25;8.52;;;;;;;;;;4995757;28;20050;-45
2021/09/12 00:40:36;;;;;;;14.15;9.27;;;;;;;;;;4994531;28;20483;-46
2021/09/12 00:43:03;;;;;;;9.43;8.43;;;;;;;;;;4995082;28;20048;-44
2021/09/12 00:45:31;;;;;;;10.93;8.07;;;;;;;;;;4995199;28;20046;-45
2021/09/12 00:47:57;;;;;;;11.30;8.40;;;;;;;;;;4995465;28;20650;-46
2021/09/12 00:50:25;;;;;;;9.50;8.25;;;;;;;;;;4995400;28;20080;-45
2021/09/12 00:52:53;;;;;;;11.10;9.20;;;;;;;;;;4994040;28;20074;-44
2021/09/12 00:55:20;;;;;;;9.65;7.50;;;;;;;;;;4994603;28;20555;-43
2021/09/12 00:57:47;;;;;;;8.10;7.20;;;;;;;;;;4995238;28;20141;-43
2021/09/12 01:00:14;;;;;;;10.13;7.50;;;;;;;;;;4994993;28;20073;-44
2021/09/12 01:02:42;;;;;;;9.18;7.70;;;;;;;;;;4994016;28;20073;-45
2021/09/12 01:05:15;;;;;;;9.88;7.30;;;;;;;;;;4994217;28;20054;-43
2021/09/12 01:07:42;;;;;;;8.75;6.88;;;;;;;;;;4995572;28;20130;-43
2021/09/12 01:10:09;;;;;;;9.07;7.80;;;;;;;;;;5014699;28;20038;-43
2021/09/12 01:12:37;;;;;;;9.77;7.88;;;;;;;;;;5014736;28;20065;-43
2021/09/12 01:15:04;;;;;;;8.93;7.15;;;;;;;;;;4995582;28;20464;-42
2021/09/12 01:17:31;;;;;;;9.18;7.60;;;;;;;;;;4995094;28;20129;-42
2021/09/12 01:19:58;;;;;;;9.10;7.68;;;;;;;;;;4995137;28;20081;-44
2021/09/12 01:22:25;;;;;;;9.07;7.40;;;;;;;;;;4994716;28;20484;-42
2021/09/12 01:24:52;;;;;;;8.65;7.10;;;;;;;;;;4993998;28;20042;-43
2021/09/12 01:27:19;;;;;;;9.40;7.32;;;;;;;;;;4994644;28;20125;-47
2021/09/12 01:29:46;;;;;;;9.15;6.97;;;;;;;;;;4994738;28;20057;-44
2021/09/12 01:32:13;;;;;;;9.15;7.15;;;;;;;;;;4994538;28;20046;-45
2021/09/12 01:34:40;;;;;;;9.07;7.53;;;;;;;;;;4993221;28;20089;-40
2021/09/12 01:37:07;;;;;;;9.15;7.97;;;;;;;;;;4994486;28;20133;-40
2021/09/12 01:39:34;;;;;;;9.20;7.32;;;;;;;;;;4993202;28;20050;-42
2021/09/12 01:42:01;;;;;;;8.70;7.22;;;;;;;;;;5009587;28;20050;-40
2021/09/12 01:44:28;;;;;;;11.07;6.75;;;;;;;;;;4993615;28;20046;-44
2021/09/12 01:46:56;;;;;;;8.93;7.70;;;;;;;;;;4993286;28;20500;-40
2021/09/12 01:49:23;;;;;;;9.63;8.23;;;;;;;;;;4994560;28;20129;-40
2021/09/12 01:51:51;;;;;;;9.68;7.50;;;;;;;;;;5009181;28;20133;-45
2021/09/12 01:54:17;;;;;;;9.48;7.03;;;;;;;;;;4993473;28;20650;-39
2021/09/12 01:56:45;;;;;;;10.32;7.25;;;;;;;;;;4993246;28;20133;-40
2021/09/12 01:59:12;;;;;;;9.32;7.30;;;;;;;;;;5009561;28;20427;-41
2021/09/12 02:01:38;;;;;;;11.60;7.90;;;;;;;;;;5009073;28;20057;-45
2021/09/12 02:04:06;;;;;;;7.75;6.75;;;;;;;;;;4993295;28;20042;-40
2021/09/12 02:06:32;;;;;;;8.32;7.28;;;;;;;;;;4994150;28;20038;-40
2021/09/12 02:08:59;;;;;;;11.52;8.23;;;;;;;;;;5004847;28;20522;-42
2021/09/12 02:11:26;;;;;;;9.23;7.65;;;;;;;;;;5029021;28;20065;-42
2021/09/12 02:13:54;;;;;;;8.60;6.65;;;;;;;;;;5004405;28;20527;-40
2021/09/12 02:16:21;;;;;;;8.18;6.63;;;;;;;;;;5008957;28;20133;-41
2021/09/12 02:18:51;;;;;;;9.52;7.78;;;;;;;;;;4993985;28;20050;-40
2021/09/12 02:21:18;;;;;;;8.50;7.32;;;;;;;;;;5008774;28;20046;-40
2021/09/12 02:23:45;;;;;;;8.40;7.50;;;;;;;;;;4991670;28;20042;-40
2021/09/12 02:26:11;;;;;;;8.85;7.63;;;;;;;;;;4993807;28;20129;-43
2021/09/12 02:28:38;;;;;;;8.70;6.95;;;;;;;;;;4993897;28;20078;-41
2021/09/12 02:31:05;;;;;;;8.98;7.50;;;;;;;;;;4992490;28;20039;-41
2021/09/12 02:33:32;;;;;;;8.27;7.10;;;;;;;;;;4991879;28;20050;-42
2021/09/12 02:36:01;;;;;;;9.63;8.15;;;;;;;;;;4993007;28;20133;-39
2021/09/12 02:38:28;;;;;;;11.63;9.55;;;;;;;;;;4992784;28;20058;-41
2021/09/12 02:40:59;;;;;;;10.25;8.48;;;;;;;;;;4992520;28;20048;-41
2021/09/12 02:43:26;;;;;;;8.95;7.32;;;;;;;;;;4992667;28;20049;-39
2021/09/12 02:45:53;;;;;;;11.25;7.68;;;;;;;;;;4993805;28;20129;-44
2021/09/12 02:48:20;;;;;;;10.60;8.48;;;;;;;;;;4994249;28;20646;-44
2021/09/12 02:50:47;;;;;;;10.13;7.30;;;;;;;;;;5009182;28;20486;-45
2021/09/12 02:53:16;;;;;;;8.70;7.00;;;;;;;;;;4992661;28;20129;-43
2021/09/12 02:55:43;;;;;;;8.13;7.00;;;;;;;;;;4991933;28;20515;-42
2021/09/12 02:58:10;;;;;;;8.38;7.35;;;;;;;;;;4993208;28;20038;-46
2021/09/12 03:00:36;;;;;;;9.02;6.82;;;;;;;;;;4991804;28;20117;-46
2021/09/12 03:03:03;;;;;;;9.93;7.93;;;;;;;;;;4992637;28;20039;-44
2021/09/12 03:05:30;;;;;;;11.55;7.90;;;;;;;;;;4992577;28;20101;-47
2021/09/12 03:07:57;;;;;;;9.15;7.72;;;;;;;;;;4995444;28;20041;-42
2021/09/12 03:10:24;;;;;;;9.52;7.53;;;;;;;;;;5012366;28;20087;-42
2021/09/12 03:12:51;;;;;;;8.80;7.32;;;;;;;;;;5012336;28;20049;-44
2021/09/12 03:15:18;;;;;;;8.88;7.07;;;;;;;;;;4999495;28;20109;-41
2021/09/12 03:17:45;;;;;;;9.15;6.95;;;;;;;;;;4992869;28;20133;-43
2021/09/12 03:20:12;;;;;;;9.43;6.90;;;;;;;;;;4992748;28;20404;-43
2021/09/12 03:22:39;;;;;;;9.00;6.95;;;;;;;;;;4992680;28;20096;-42
2021/09/12 03:25:06;;;;;;;9.57;7.90;;;;;;;;;;4991648;28;20053;-42
2021/09/12 03:27:33;;;;;;;8.15;6.60;;;;;;;;;;4992538;28;20125;-43
2021/09/12 03:30:00;;;;;;;8.88;7.50;;;;;;;;;;4997773;28;20517;-42
2021/09/12 03:32:27;;;;;;;10.70;7.90;;;;;;;;;;5023010;28;20479;-42
2021/09/12 03:34:53;;;;;;;10.50;7.18;;;;;;;;;;4996120;28;20058;-45
2021/09/12 03:37:20;;;;;;;15.30;7.32;;;;;;;;;;4992502;28;20482;-43
2021/09/12 03:39:47;;;;;;;7.85;6.40;;;;;;;;;;4992438;28;20096;-44
2021/09/12 03:42:14;;;;;;;8.65;6.93;;;;;;;;;;4992263;28;20046;-42
2021/09/12 03:44:40;;;;;;;7.25;6.00;;;;;;;;;;4990104;28;20121;-42
2021/09/12 03:47:07;;;;;;;8.20;6.80;;;;;;;;;;4992262;28;20082;-43
2021/09/12 03:49:34;;;;;;;7.68;6.10;;;;;;;;;;5007596;28;20134;-42
2021/09/12 03:52:01;;;;;;;9.55;6.55;;;;;;;;;;4992334;28;20403;-44
2021/09/12 03:54:29;;;;;;;10.52;6.43;;;;;;;;;;5006350;28;20042;-42
2021/09/12 03:56:55;;;;;;;7.18;6.47;;;;;;;;;;4992071;28;20046;-42
2021/09/12 03:59:22;;;;;;;8.23;6.22;;;;;;;;;;4992169;28;20053;-42
2021/09/12 04:01:49;;;;;;;8.38;6.13;;;;;;;;;;4992388;28;20399;-42
2021/09/12 04:04:16;;;;;;;7.35;5.97;;;;;;;;;;4991530;28;20102;-42
2021/09/12 04:06:43;;;;;;;8.50;6.13;;;;;;;;;;4990994;28;20137;-43
2021/09/12 04:09:09;;;;;;;8.93;6.10;;;;;;;;;;5004409;28;20541;-45
2021/09/12 04:11:36;;;;;;;7.10;5.95;;;;;;;;;;5011548;28;20116;-45
2021/09/12 04:14:03;;;;;;;6.95;5.97;;;;;;;;;;5021158;23;20056;-46
2021/09/12 04:16:30;;;;;;;7.47;5.90;;;;;;;;;;5012339;28;20042;-44
2021/09/12 04:18:56;;;;;;;8.85;6.60;;;;;;;;;;5012105;28;20066;-46
2021/09/12 04:21:23;;;;;;;8.20;6.25;;;;;;;;;;5027442;28;20042;-48
2021/09/12 04:23:50;;;;;;;7.88;6.60;;;;;;;;;;4992986;28;20491;-42
2021/09/12 04:26:17;;;;;;;8.90;6.63;;;;;;;;;;4992751;28;20408;-44
2021/09/12 04:28:43;;;;;;;18.92;7.82;;;;;;;;;;4991762;28;20049;-48
2021/09/12 04:31:11;;;;;;;8.43;7.43;;;;;;;;;;4993520;28;20046;-44
2021/09/12 04:33:38;;;;;;;9.52;7.35;;;;;;;;;;4992637;28;20511;-45
2021/09/12 04:36:05;;;;;;;9.93;8.02;;;;;;;;;;4992621;28;20407;-44
2021/09/12 04:38:32;;;;;;;9.02;6.97;;;;;;;;;;4993182;28;20050;-46
2021/09/12 04:41:00;;;;;;;9.05;7.28;;;;;;;;;;4992905;28;20125;-45
2021/09/12 04:43:27;;;;;;;8.02;6.35;;;;;;;;;;4991489;28;20129;-43
2021/09/12 04:45:53;;;;;;;7.30;6.43;;;;;;;;;;4992727;28;20175;-44
2021/09/12 04:48:20;;;;;;;8.40;6.65;;;;;;;;;;4992674;28;20034;-45
2021/09/12 04:50:47;;;;;;;9.18;6.78;;;;;;;;;;4991289;28;20045;-45
2021/09/12 04:53:14;;;;;;;8.02;6.65;;;;;;;;;;4991719;28;20051;-46
2021/09/12 04:55:41;;;;;;;8.13;6.40;;;;;;;;;;4992575;28;20057;-46
2021/09/12 04:58:07;;;;;;;7.10;6.03;;;;;;;;;;4992470;28;20045;-45
2021/09/12 05:00:34;;;;;;;7.47;6.28;;;;;;;;;;4992505;28;20471;-44
2021/09/12 05:03:01;;;;;;;8.38;6.53;;;;;;;;;;4992038;28;20046;-39
2021/09/12 05:05:28;;;;;;;9.02;6.13;;;;;;;;;;4991976;28;20547;-48
2021/09/12 05:07:55;;;;;;;6.90;5.72;;;;;;;;;;4993118;28;20123;-47
2021/09/12 05:10:22;;;;;;;7.10;5.75;;;;;;;;;;5015113;28;20227;-45
2021/09/12 05:12:49;;;;;;;7.88;6.15;;;;;;;;;;5015121;28;20041;-48
2021/09/12 05:15:16;;;;;;;10.00;7.00;;;;;;;;;;5009473;28;20503;-45
2021/09/12 05:17:43;;;;;;;7.55;6.65;;;;;;;;;;4995955;28;20490;-45
2021/09/12 05:20:10;;;;;;;8.07;5.90;;;;;;;;;;4996140;28;20467;-49
2021/09/12 05:22:38;;;;;;;8.20;6.68;;;;;;;;;;4995479;28;20773;-46
2021/09/12 05:25:05;;;;;;;7.65;6.25;;;;;;;;;;4994941;28;20049;-47
2021/09/12 05:27:31;;;;;;;7.10;5.65;;;;;;;;;;4995241;28;20106;-44
2021/09/12 05:29:58;;;;;;;8.15;6.03;;;;;;;;;;4995604;28;20042;-43
2021/09/12 05:32:25;;;;;;;7.78;5.55;;;;;;;;;;4995179;28;20407;-45
2021/09/12 05:34:52;;;;;;;9.68;6.13;;;;;;;;;;4994250;28;20050;-45
2021/09/12 05:37:19;;;;;;;6.88;6.18;;;;;;;;;;4995217;28;20042;-42
2021/09/12 05:39:45;;;;;;;7.53;6.38;;;;;;;;;;4995380;28;20480;-47
2021/09/12 05:42:12;;;;;;;7.72;6.93;;;;;;;;;;4995390;28;20142;-48
2021/09/12 05:44:39;;;;;;;7.22;6.32;;;;;;;;;;4994244;28;20043;-42
2021/09/12 05:47:06;;;;;;;7.65;6.53;;;;;;;;;;4994983;28;20052;-38
2021/09/12 05:49:32;;;;;;;7.30;6.50;;;;;;;;;;4994246;28;20043;-38
2021/09/12 05:51:59;;;;;;;7.30;5.93;;;;;;;;;;4993926;28;20137;-41
2021/09/12 05:54:26;;;;;;;7.43;6.43;;;;;;;;;;4993543;28;20388;-37
2021/09/12 05:56:52;;;;;;;7.63;5.97;;;;;;;;;;4994373;28;20161;-37
2021/09/12 05:59:19;;;;;;;6.30;5.53;;;;;;;;;;4994323;28;20068;-40
2021/09/12 06:01:46;;;;;;;8.00;6.95;;;;;;;;;;4994346;28;20042;-37
2021/09/12 06:04:13;;;;;;;8.68;7.13;;;;;;;;;;4993427;28;20100;-37
2021/09/12 06:06:40;;;;;;;7.13;6.35;;;;;;;;;;4993995;28;20518;-42
2021/09/12 06:09:07;;;;;;;7.63;6.38;;;;;;;;;;5006376;28;20042;-37
2021/09/12 06:11:33;;;;;;;8.15;6.97;;;;;;;;;;5013722;28;20056;-36
2021/09/12 06:14:32;;;;;;;10.60;7.75;;;;;;;;;;5009742;28;20089;-38
2021/09/12 06:16:58;;;;;;;9.13;7.32;;;;;;;;;;5001582;28;20106;-36
2021/09/12 06:19:24;;;;;;;10.23;7.43;;;;;;;;;;4996153;28;20178;-40
2021/09/12 06:21:51;;;;;;;10.50;7.97;;;;;;;;;;4994063;28;20042;-36
2021/09/12 06:24:18;;;;;;;10.98;8.48;;;;;;;;;;4993261;28;20483;-36
2021/09/12 06:26:44;;;;;;;11.50;8.73;;;;;;;;;;4993927;28;20138;-38
2021/09/12 06:29:11;;;;;;;9.85;8.27;;;;;;;;;;4994447;28;20041;-37
2021/09/12 06:31:38;;;;;;;10.77;8.88;;;;;;;;;;5002898;28;20046;-36
2021/09/12 06:34:05;;;;;;;10.25;8.32;;;;;;;;;;5026776;28;20041;-41
2021/09/12 06:36:31;;;;;;;11.25;8.90;;;;;;;;;;4994365;28;20050;-36
2021/09/12 06:38:58;;;;;;;13.13;9.50;;;;;;;;;;4993971;28;20053;-36
2021/09/12 06:41:25;;;;;;;11.75;8.93;;;;;;;;;;4994419;28;20074;-40
2021/09/12 06:43:52;;;;;;;12.00;9.77;;;;;;;;;;4992899;28;20427;-37
2021/09/12 06:46:19;;;;;;;13.45;9.63;;;;;;;;;;4993463;28;20073;-36
2021/09/12 06:48:46;;;;;;;13.07;9.70;;;;;;;;;;4995824;28;20159;-40
2021/09/12 06:51:13;;;;;;;12.02;9.68;;;;;;;;;;5008026;28;20042;-37
2021/09/12 06:53:40;;;;;;;12.63;8.88;;;;;;;;;;4992448;28;20129;-39
2021/09/12 06:56:06;;;;;;;11.10;8.52;;;;;;;;;;4991873;28;20048;-37
2021/09/12 06:58:33;;;;;;;10.48;8.50;;;;;;;;;;4993293;28;20519;-37
2021/09/12 07:01:00;;;;;;;12.65;9.40;;;;;;;;;;4993979;28;20125;-41
2021/09/12 07:03:27;;;;;;;11.52;9.05;;;;;;;;;;4993598;28;20046;-36
2021/09/12 07:05:54;;;;;;;11.68;9.57;;;;;;;;;;4994367;28;20057;-40
2021/09/12 07:08:21;;;;;;;10.00;8.20;;;;;;;;;;4999562;28;20030;-37
2021/09/12 07:10:48;;;;;;;11.15;8.77;;;;;;;;;;5013247;28;20420;-41
2021/09/12 07:13:15;;;;;;;11.63;8.90;;;;;;;;;;5006927;28;20046;-37
2021/09/12 07:15:41;;;;;;;9.48;7.90;;;;;;;;;;4992990;28;20052;-36
2021/09/12 07:18:08;;;;;;;12.02;8.75;;;;;;;;;;4993003;28;20126;-40
2021/09/12 07:20:35;;;;;;;11.40;9.70;;;;;;;;;;4991659;28;20136;-37
2021/09/12 07:23:02;;;;;;;13.95;8.88;;;;;;;;;;4992433;28;20038;-37
2021/09/12 07:25:29;;;;;;;11.95;8.73;;;;;;;;;;4990975;28;20046;-41
2021/09/12 07:27:56;;;;;;;11.02;8.68;;;;;;;;;;4992739;28;20426;-37
2021/09/12 07:30:23;;;;;;;11.43;9.48;;;;;;;;;;4992646;28;20464;-40
2021/09/12 07:32:51;;;;;;;12.68;9.75;;;;;;;;;;4992675;28;20042;-38
2021/09/12 07:35:18;;;;;;;11.02;9.05;;;;;;;;;;4991650;28;20046;-38
2021/09/12 07:37:45;;;;;;;12.43;9.00;;;;;;;;;;4992685;28;20050;-37
2021/09/12 07:40:12;;;;;;;10.52;8.73;;;;;;;;;;4994331;28;20110;-40
2021/09/12 07:42:41;;;;;;;12.02;8.38;;;;;;;;;;5017159;28;20124;-39
2021/09/12 07:45:08;;;;;;;13.52;9.50;;;;;;;;;;5003716;28;20129;-43
2021/09/12 07:47:34;;;;;;;9.52;8.52;;;;;;;;;;5017246;28;20122;-37
2021/09/12 07:50:01;;;;;;;10.95;8.98;;;;;;;;;;5031807;28;20128;-37
2021/09/12 07:52:28;;;;;;;11.55;8.57;;;;;;;;;;5030717;28;20069;-37
2021/09/12 07:54:55;;;;;;;13.30;9.77;;;;;;;;;;4995498;28;20142;-37
2021/09/12 07:57:22;;;;;;;12.05;8.60;;;;;;;;;;4992713;28;20458;-42
2021/09/12 07:59:48;;;;;;;12.98;9.38;;;;;;;;;;5018030;28;20557;-37
2021/09/12 08:02:15;;;;;;;11.70;8.27;;;;;;;;;;5032289;28;20045;-36
2021/09/12 08:04:42;;;;;;;10.63;8.60;;;;;;;;;;4992543;28;20070;-39
2021/09/12 08:07:10;;;;;;;10.57;7.65;;;;;;;;;;4996177;28;20121;-36
2021/09/12 08:09:36;;;;;;;11.75;8.60;;;;;;;;;;5012308;28;20045;-40
2021/09/12 08:12:03;;;;;;;10.48;8.25;;;;;;;;;;5018168;28;20042;-37
2021/09/12 08:14:30;;;;;;;10.18;7.57;;;;;;;;;;4996671;28;20470;-37
2021/09/12 08:16:56;;;;;;;9.93;7.63;;;;;;;;;;4993142;28;20128;-41
2021/09/12 08:19:23;;;;;;;7.78;6.00;;;;;;;;;;4993892;28;20069;-36
2021/09/12 08:21:50;;;;;;;8.57;6.43;;;;;;;;;;4992707;28;20054;-37
2021/09/12 08:24:20;;;;;;;8.20;6.00;;;;;;;;;;4992159;28;20419;-36
2021/09/12 08:26:47;;;;;;;7.80;6.30;;;;;;;;;;5015014;28;20064;-40
2021/09/12 08:29:14;;;;;;;9.70;6.38;;;;;;;;;;5031650;28;20410;-37
2021/09/12 08:31:41;;;;;;;8.13;6.50;;;;;;;;;;5031539;28;20041;-36
2021/09/12 08:34:08;;;;;;;9.27;6.47;;;;;;;;;;5009138;28;20038;-39
2021/09/12 08:36:34;;;;;;;9.85;6.18;;;;;;;;;;5011143;28;20084;-38
2021/09/12 08:39:01;;;;;;;7.65;5.90;;;;;;;;;;5011468;28;20073;-42
2021/09/12 08:41:29;;;;;;;7.35;5.97;;;;;;;;;;4990056;28;20054;-37
2021/09/12 08:43:57;;;;;;;8.02;6.25;;;;;;;;;;5002570;28;20410;-38
2021/09/12 08:46:24;;;;;;;7.82;5.93;;;;;;;;;;5014821;28;20403;-38
2021/09/12 08:48:51;;;;;;;9.00;6.18;;;;;;;;;;5015387;28;20123;-48
2021/09/12 08:51:18;;;;;;;7.82;5.57;;;;;;;;;;5010985;28;20060;-42
2021/09/12 08:53:45;;;;;;;8.55;6.28;;;;;;;;;;4995187;28;20533;-46
2021/09/12 08:56:12;;;;;;;9.70;6.57;;;;;;;;;;4995705;28;20068;-41
2021/09/12 08:58:39;;;;;;;10.55;7.20;;;;;;;;;;4995826;28;20136;-43
2021/09/12 09:01:05;;;;;;;8.82;6.28;;;;;;;;;;4995194;28;20051;-45
2021/09/12 09:03:41;;;;;;;8.73;6.13;;;;;;;;;;4996092;28;20104;-42
2021/09/12 09:06:11;;;;;;;8.30;5.88;;;;;;;;;;5012850;28;20077;-43
2021/09/12 09:08:48;;;;;;;8.10;5.70;;;;;;;;;;4998602;28;20129;-44
2021/09/12 09:11:25;;;;;;;7.55;5.90;;;;;;;;;;5013686;28;20151;-45
2021/09/12 09:13:52;;;;;;;8.05;5.85;;;;;;;;;;5007765;28;20045;-43
2021/09/12 09:16:28;;;;;;;6.28;5.05;;;;;;;;;;5012966;28;20048;-43
2021/09/12 09:19:02;;;;;;;7.80;5.55;;;;;;;;;;5014252;28;20137;-43
2021/09/12 09:21:31;;;;;;;6.95;5.32;;;;;;;;;;5009030;28;20519;-44
2021/09/12 09:24:05;;;;;;;7.50;5.60;;;;;;;;;;5007580;28;20104;-42
2021/09/12 09:26:35;;;;;;;11.43;6.50;;;;;;;;;;5024093;28;20034;-43
2021/09/12 09:29:02;;;;;;;7.60;6.18;;;;;;;;;;5014316;28;20153;-41
2021/09/12 09:31:28;;;;;;;7.30;5.53;;;;;;;;;;5010525;28;20526;-44
2021/09/12 09:33:55;;;;;;;7.28;5.80;;;;;;;;;;5010895;28;20499;-45
2021/09/12 09:36:29;;;;;;;6.63;5.93;;;;;;;;;;5006901;28;20072;-46
2021/09/12 09:38:56;;;;;;;7.82;6.32;;;;;;;;;;5013454;28;20069;-43
2021/09/12 09:41:34;;;;;;;7.05;5.90;;;;;;;;;;5013504;28;20049;-45
2021/09/12 09:44:06;;;;;;;7.88;6.15;;;;;;;;;;5011183;28;20400;-44
2021/09/12 09:46:33;;;;;;;8.13;6.65;;;;;;;;;;5015054;28;20042;-44
2021/09/12 09:49:00;;;;;;;7.15;5.60;;;;;;;;;;5010768;28;20038;-45
2021/09/12 09:51:28;;;;;;;6.85;5.57;;;;;;;;;;5014730;28;20555;-44
2021/09/12 09:53:56;;;;;;;6.60;5.22;;;;;;;;;;5013014;28;20042;-46
2021/09/12 09:56:24;;;;;;;7.03;5.45;;;;;;;;;;5014907;28;20157;-44
2021/09/12 09:58:51;;;;;;;7.07;5.72;;;;;;;;;;5015169;28;20073;-43
2021/09/12 10:01:18;;;;;;;7.25;6.35;;;;;;;;;;5007654;28;20139;-44
2021/09/12 10:03:47;;;;;;;8.05;5.90;;;;;;;;;;5012469;28;20053;-45
2021/09/12 10:06:15;;;;;;;5.78;4.75;;;;;;;;;;5000668;28;20069;-41
2021/09/12 10:08:43;;;;;;;7.88;5.47;;;;;;;;;;5013887;28;20069;-43
2021/09/12 10:11:10;;;;;;;8.07;5.57;;;;;;;;;;5013155;28;20042;-47
2021/09/12 10:13:38;;;;;;;7.22;5.20;;;;;;;;;;5000372;28;20045;-44
2021/09/12 10:16:06;;;;;;;7.05;5.15;;;;;;;;;;4994207;28;20145;-47
2021/09/12 10:18:33;;;;;;;8.65;5.30;;;;;;;;;;5001869;28;20152;-44
2021/09/12 10:21:18;;;;;;;8.88;5.75;;;;;;;;;;5011396;28;20053;-41
2021/09/12 10:23:55;;;;;;;7.28;4.72;;;;;;;;;;4993666;28;20503;-39
2021/09/12 10:26:36;;;;;;;8.48;5.25;;;;;;;;;;5008191;28;20042;-41
2021/09/12 10:29:03;;;;;;;7.03;5.43;;;;;;;;;;5000631;28;20467;-40
2021/09/12 10:31:33;;;;;;;7.13;4.80;;;;;;;;;;5004594;28;20037;-40
2021/09/12 10:34:09;;;;;;;6.28;4.70;;;;;;;;;;5017273;28;20038;-43
2021/09/12 10:36:37;;;;;;;6.68;5.60;;;;;;;;;;4999298;28;20046;-39
2021/09/12 10:39:19;;;;;;;5.63;4.80;;;;;;;;;;5011984;28;20522;-39
2021/09/12 10:42:05;;;;;;;5.80;4.70;;;;;;;;;;5013322;28;20052;-39
2021/09/12 10:44:32;;;;;;;6.55;5.22;;;;;;;;;;4997353;28;20057;-39
2021/09/12 10:47:06;;;;;;;5.32;4.80;;;;;;;;;;4997346;28;20036;-42
2021/09/12 10:49:33;;;;;;;8.75;4.35;;;;;;;;;;5014022;28;20046;-39
2021/09/12 10:52:00;;;;;;;5.25;4.50;;;;;;;;;;5006210;28;20042;-40
2021/09/12 10:54:29;;;;;;;6.57;4.40;;;;;;;;;;5013162;28;20441;-40
2021/09/12 10:57:06;;;;;;;6.32;4.43;;;;;;;;;;5011533;28;20462;-40
2021/09/12 10:59:33;;;;;;;6.90;4.82;;;;;;;;;;5007969;28;20073;-39
2021/09/12 11:02:00;;;;;;;5.70;4.28;;;;;;;;;;5010833;28;20046;-39
2021/09/12 11:04:29;;;;;;;5.25;4.18;;;;;;;;;;5011268;28;20400;-39
2021/09/12 11:07:04;;;;;;;6.03;4.65;;;;;;;;;;5010818;28;20401;-39
2021/09/12 11:09:32;;;;;;;5.35;4.10;;;;;;;;;;5012567;28;20407;-37
2021/09/12 11:12:00;;;;;;;5.63;4.22;;;;;;;;;;5013476;28;20041;-37
2021/09/12 11:14:27;;;;;;;6.93;4.20;;;;;;;;;;5009258;28;20038;-38
2021/09/12 11:16:54;;;;;;;5.22;3.45;;;;;;;;;;5012646;28;20042;-41
2021/09/12 11:19:21;;;;;;;5.10;3.50;;;;;;;;;;5013096;28;20050;-39
2021/09/12 11:21:49;;;;;;;6.75;4.63;;;;;;;;;;5013788;28;20121;-43
2021/09/12 11:24:17;;;;;;;6.28;4.07;;;;;;;;;;5001000;28;20054;-41
2021/09/12 11:26:48;;;;;;;4.95;3.80;;;;;;;;;;5003747;28;20411;-42
2021/09/12 11:29:16;;;;;;;3.83;3.22;;;;;;;;;;5013543;28;20420;-42
2021/09/12 11:31:44;;;;;;;5.03;3.50;;;;;;;;;;5011034;28;20116;-45
2021/09/12 11:34:12;;;;;;;5.63;3.58;;;;;;;;;;4996998;28;20068;-42
2021/09/12 11:36:39;;;;;;;4.90;3.60;;;;;;;;;;5015467;28;20041;-40
2021/09/12 11:39:06;;;;;;;4.47;3.33;;;;;;;;;;5010738;28;20045;-40
2021/09/12 11:41:33;;;;;;;4.82;3.30;;;;;;;;;;5010743;28;20045;-41
2021/09/12 11:44:02;;;;;;;4.88;3.55;;;;;;;;;;5009990;28;20046;-41
2021/09/12 11:46:32;;;;;;;4.05;3.10;;;;;;;;;;4996232;28;20129;-40
2021/09/12 11:49:00;;;;;;;6.32;4.50;;;;;;;;;;5006016;28;20053;-41
2021/09/12 11:51:28;;;;;;;4.43;3.40;;;;;;;;;;5011352;28;20041;-40
2021/09/12 11:54:04;;;;;;;4.20;3.10;;;;;;;;;;5008062;28;20101;-40
2021/09/12 11:56:32;;;;;;;3.90;2.97;;;;;;;;;;5012344;28;20711;-40
2021/09/12 11:59:00;;;;;;;4.68;3.42;;;;;;;;;;5022177;28;20041;-41
2021/09/12 12:01:27;;;;;;;3.45;2.80;;;;;;;;;;5015160;28;20500;-40
2021/09/12 12:03:54;;;;;;;6.20;3.08;;;;;;;;;;5017761;28;20061;-41
2021/09/12 12:06:22;;;;;;;3.92;2.90;;;;;;;;;;5007809;28;20087;-41
2021/09/12 12:09:01;;;;;;;3.97;2.83;;;;;;;;;;5034628;28;20119;-40
2021/09/12 12:11:28;;;;;;;4.60;2.92;;;;;;;;;;5021543;28;20118;-42
2021/09/12 12:13:55;;;;;;;5.68;3.38;;;;;;;;;;5029786;28;20068;-42
2021/09/12 12:16:22;;;;;;;3.78;3.38;;;;;;;;;;5022057;28;20067;-42
2021/09/12 12:19:03;;;;;;;5.35;3.25;;;;;;;;;;5028002;28;20041;-41
2021/09/12 12:21:30;;;;;;;5.05;3.50;;;;;;;;;;5031234;28;20045;-44
2021/09/12 12:23:58;;;;;;;5.50;3.50;;;;;;;;;;5016246;28;20064;-41
2021/09/12 12:26:24;;;;;;;6.22;3.58;;;;;;;;;;5028707;28;20049;-42
2021/09/12 12:28:58;;;;;;;4.57;3.17;;;;;;;;;;5026232;28;20065;-40
2021/09/12 12:31:26;;;;;;;4.72;3.35;;;;;;;;;;5018865;28;20073;-42
2021/09/12 12:33:52;;;;;;;4.32;3.40;;;;;;;;;;5025772;28;20041;-41
2021/09/12 12:36:21;;;;;;;4.22;3.20;;;;;;;;;;5028547;28;20072;-43
2021/09/12 12:38:48;;;;;;;4.05;3.30;;;;;;;;;;5025150;28;20049;-43
2021/09/12 12:41:19;;;;;;;6.53;3.25;;;;;;;;;;5029095;28;20054;-42
2021/09/12 12:43:46;;;;;;;3.47;2.72;;;;;;;;;;5007124;28;20052;-42
2021/09/12 12:46:13;;;;;;;4.07;2.78;;;;;;;;;;5020453;28;20042;-41
2021/09/12 12:48:42;;;;;;;4.13;2.88;;;;;;;;;;5024397;28;20054;-41
2021/09/12 12:51:12;;;;;;;3.90;2.60;;;;;;;;;;5016857;28;20066;-41
2021/09/12 12:53:41;;;;;;;3.95;3.17;;;;;;;;;;5018960;28;20196;-45
2021/09/12 12:56:10;;;;;;;2.80;2.40;;;;;;;;;;5028228;28;20125;-44
2021/09/12 12:58:37;;;;;;;3.20;2.40;;;;;;;;;;5015225;28;20042;-42
2021/09/12 13:01:05;;;;;;;3.92;2.38;;;;;;;;;;5014562;28;20046;-41
2021/09/12 13:03:33;;;;;;;4.47;3.17;;;;;;;;;;5014506;28;20049;-42
2021/09/12 13:06:10;;;;;;;4.50;2.65;;;;;;;;;;4997551;28;20074;-45
2021/09/12 13:08:38;;;;;;;3.58;2.70;;;;;;;;;;5013647;28;20076;-41
2021/09/12 13:11:05;;;;;;;3.67;2.88;;;;;;;;;;5013550;28;20050;-43
2021/09/12 13:13:32;;;;;;;3.90;2.90;;;;;;;;;;5012174;28;20047;-43
2021/09/12 13:15:59;;;;;;;3.00;2.28;;;;;;;;;;5014533;28;20046;-45
2021/09/12 13:18:26;;;;;;;3.40;2.90;;;;;;;;;;5014547;28;20092;-47
2021/09/12 13:20:53;;;;;;;3.80;2.75;;;;;;;;;;5014554;28;20056;-46
2021/09/12 13:23:20;;;;;;;5.22;2.83;;;;;;;;;;5011151;28;20172;-49
2021/09/12 13:25:48;;;;;;;4.32;3.00;;;;;;;;;;4995195;28;20074;-43
2021/09/12 13:28:14;;;;;;;3.42;2.53;;;;;;;;;;4993619;28;20046;-41
2021/09/12 13:30:42;;;;;;;3.70;2.78;;;;;;;;;;4992875;28;20038;-42
2021/09/12 13:33:09;;;;;;;5.63;2.70;;;;;;;;;;4994523;28;20380;-44
2021/09/12 13:35:36;;;;;;;3.42;2.80;;;;;;;;;;4994662;28;20072;-40
2021/09/12 13:38:03;;;;;;;4.55;2.80;;;;;;;;;;4993275;28;20046;-50
2021/09/12 13:40:30;;;;;;;3.80;2.72;;;;;;;;;;4994344;28;20060;-45
2021/09/12 13:42:59;;;;;;;5.57;2.78;;;;;;;;;;4999107;28;20072;-47
2021/09/12 13:45:26;;;;;;;4.97;2.60;;;;;;;;;;4994279;28;20181;-41
2021/09/12 13:47:53;;;;;;;4.32;2.97;;;;;;;;;;5009458;28;20066;-41
2021/09/12 13:50:20;;;;;;;4.35;3.08;;;;;;;;;;5009754;28;20042;-44
2021/09/12 13:52:47;;;;;;;4.47;3.47;;;;;;;;;;4994345;28;20072;-40
2021/09/12 13:55:14;;;;;;;3.50;2.88;;;;;;;;;;4992709;28;20046;-46
2021/09/12 13:57:41;;;;;;;5.32;2.42;;;;;;;;;;4994184;28;20686;-47
2021/09/12 14:00:08;;;;;;;3.95;2.78;;;;;;;;;;4992887;28;20116;-40
2021/09/12 14:02:38;;;;;;;5.32;2.72;;;;;;;;;;4993376;28;20041;-41
2021/09/12 14:05:05;;;;;;;4.88;2.70;;;;;;;;;;4994060;28;20411;-40
2021/09/12 14:07:34;;;;;;;4.60;2.65;;;;;;;;;;4994168;28;20043;-41
2021/09/12 14:10:02;;;;;;;4.32;2.75;;;;;;;;;;4994262;28;20065;-42
2021/09/12 14:12:29;;;;;;;3.33;2.70;;;;;;;;;;4994146;28;20042;-42
2021/09/12 14:14:56;;;;;;;3.97;2.90;;;;;;;;;;4992640;28;20066;-41
2021/09/12 14:17:23;;;;;;;4.65;2.92;;;;;;;;;;4994081;28;20042;-45
2021/09/12 14:19:49;;;;;;;3.35;2.78;;;;;;;;;;4993568;28;20106;-46
2021/09/12 14:22:16;;;;;;;3.30;2.40;;;;;;;;;;4993720;28;20145;-40
2021/09/12 14:24:43;;;;;;;3.97;3.15;;;;;;;;;;4992291;28;20049;-41
2021/09/12 14:27:10;;;;;;;3.60;2.50;;;;;;;;;;4994001;28;20042;-41
2021/09/12 14:29:37;;;;;;;3.85;2.90;;;;;;;;;;4993752;28;20121;-47
2021/09/12 14:32:04;;;;;;;3.28;2.80;;;;;;;;;;4992852;28;20042;-40
2021/09/12 14:34:31;;;;;;;3.58;2.45;;;;;;;;;;4992901;28;20043;-39
2021/09/12 14:36:57;;;;;;;4.35;3.00;;;;;;;;;;4994219;28;20596;-43
2021/09/12 14:39:24;;;;;;;3.45;2.75;;;;;;;;;;4993971;28;20038;-40
2021/09/12 14:41:51;;;;;;;5.10;3.97;;;;;;;;;;4991391;28;20095;-39
2021/09/12 14:44:18;;;;;;;5.20;2.60;;;;;;;;;;4993375;28;20133;-41